Time;durP1;ratioP1;P1;durP2;ratioP2;P2;SDS_P1;SDS_P2;PMS_P1;PMS_P2;Temp;Humidity;BMP_temperature;BMP_pressure;BME280_temperature;BME280_humidity;BME280_pressure;Samples;Min_cycle;Max_cycle;Signal;HPM_P1;HPM_P2
2021/10/17 00:01:02;;;;;;;15.33;8.53;;;7.80;99.90;;;7.53;91.53;98522.72;5049858;28;20647;-82
2021/10/17 00:03:33;;;;;;;11.27;7.60;;;7.80;99.90;;;7.52;92.03;98517.59;5052974;28;20644;-82
2021/10/17 00:06:01;;;;;;;13.70;7.93;;;7.90;99.90;;;7.48;92.31;98519.47;5049985;28;20640;-82
2021/10/17 00:08:30;;;;;;;12.20;7.87;;;7.80;99.90;;;7.48;90.68;98516.06;5050367;28;20675;-82
2021/10/17 00:10:58;;;;;;;17.23;8.17;;;7.80;99.90;;;7.47;91.71;98516.97;5055574;28;20646;-82
2021/10/17 00:13:27;;;;;;;17.50;7.80;;;7.80;99.90;;;7.46;91.51;98514.44;5054378;28;20628;-82
2021/10/17 00:15:56;;;;;;;23.37;9.63;;;7.70;99.90;;;7.42;91.79;98518.13;5053384;28;21234;-82
2021/10/17 00:18:24;;;;;;;18.23;9.13;;;7.70;99.90;;;7.39;91.55;98523.47;5055065;28;20667;-82
2021/10/17 00:20:55;;;;;;;13.37;7.90;;;7.70;99.90;;;7.34;91.66;98520.25;5055928;28;21659;-82
2021/10/17 00:23:24;;;;;;;12.27;8.90;;;7.70;99.90;;;7.28;91.54;98523.97;5056516;28;20626;-82
2021/10/17 00:25:52;;;;;;;17.43;8.07;;;7.60;99.90;;;7.25;91.25;98529.31;5041689;28;21256;-82
2021/10/17 00:28:21;;;;;;;10.17;7.87;;;7.60;99.90;;;7.23;92.43;98523.38;5059458;28;20635;-82
2021/10/17 00:30:53;;;;;;;12.30;8.17;;;7.50;99.90;;;7.21;90.85;98520.00;5050912;28;20712;-82
2021/10/17 00:33:25;;;;;;;13.57;8.03;;;7.50;99.90;;;7.18;91.39;98519.31;5040037;28;20730;-82
2021/10/17 00:35:55;;;;;;;13.90;8.73;;;7.50;99.90;;;7.15;92.20;98520.28;5051126;28;20628;-82
2021/10/17 00:38:24;;;;;;;9.67;7.77;;;7.50;99.90;;;7.11;92.30;98518.78;5043961;28;21234;-82
2021/10/17 00:40:54;;;;;;;23.70;12.07;;;7.50;99.90;;;7.08;91.50;98516.31;5051347;28;20632;-82
2021/10/17 00:43:23;;;;;;;14.30;8.33;;;7.40;99.90;;;7.05;91.03;98505.22;5054772;28;20625;-82
2021/10/17 00:45:52;;;;;;;18.10;8.30;;;7.40;99.90;;;7.03;92.22;98511.44;5053467;28;20634;-82
2021/10/17 00:48:21;;;;;;;14.23;7.70;;;7.30;99.90;;;7.01;92.27;98505.47;5052299;28;20636;-82
2021/10/17 00:50:52;;;;;;;11.17;8.10;;;7.40;99.90;;;6.99;91.85;98507.28;5050530;28;21066;-82
2021/10/17 00:53:22;;;;;;;16.23;8.00;;;7.30;99.90;;;6.98;91.79;98500.44;5051342;28;20620;-82
2021/10/17 00:55:54;;;;;;;18.70;8.63;;;7.30;99.90;;;6.98;92.30;98503.88;5053817;28;20955;-82
2021/10/17 00:58:22;;;;;;;25.07;8.33;;;7.30;99.90;;;6.99;91.56;98507.28;5054235;28;20646;-82
2021/10/17 01:00:52;;;;;;;15.20;7.37;;;7.30;99.90;;;6.97;92.21;98504.78;5040501;28;20658;-82
2021/10/17 01:03:21;;;;;;;20.77;8.80;;;7.30;99.90;;;6.94;92.54;98496.31;5056759;28;21023;-82
2021/10/17 01:05:52;;;;;;;40.67;10.20;;;7.30;99.90;;;6.92;93.11;98501.56;5057053;28;20686;-82
2021/10/17 01:08:23;;;;;;;22.57;8.13;;;7.30;99.90;;;6.92;92.71;98498.16;5058103;28;20793;-82
2021/10/17 01:10:57;;;;;;;12.23;7.43;;;7.20;99.90;;;6.93;92.91;98492.88;5056960;28;20674;-82
2021/10/17 01:13:26;;;;;;;23.60;9.10;;;7.30;99.90;;;6.92;92.74;98488.59;5043998;28;20628;-82
2021/10/17 01:15:57;;;;;;;20.80;9.00;;;7.20;99.90;;;6.91;92.99;98491.28;5059746;28;20636;-82
2021/10/17 01:18:36;;;;;;;22.37;8.93;;;7.20;99.90;;;6.87;93.21;98484.53;5053452;28;20632;-82
2021/10/17 01:21:13;;;;;;;30.00;10.10;;;7.20;99.90;;;6.85;92.81;98481.19;5040418;28;20656;-82
2021/10/17 01:23:42;;;;;;;34.53;8.20;;;7.20;99.90;;;6.85;93.26;98478.59;5053381;28;20650;-82
2021/10/17 01:26:12;;;;;;;15.13;7.10;;;7.20;99.90;;;6.84;92.96;98484.69;5055998;28;21195;-82
2021/10/17 01:28:40;;;;;;;15.80;7.87;;;7.20;99.90;;;6.82;92.59;98478.75;5041670;28;20627;-82
2021/10/17 01:31:09;;;;;;;25.07;8.83;;;7.20;99.90;;;6.82;93.22;98486.50;5041221;28;20683;-82
2021/10/17 01:33:38;;;;;;;15.03;7.10;;;7.10;99.90;;;6.77;93.05;98478.97;5037800;28;20708;-82
2021/10/17 01:36:06;;;;;;;22.83;8.00;;;7.10;99.90;;;6.76;92.95;98476.44;5054264;28;21226;-82
2021/10/17 01:38:36;;;;;;;16.87;9.17;;;7.10;99.90;;;6.76;93.08;98486.81;5059610;28;20706;-82
2021/10/17 01:41:05;;;;;;;27.83;8.50;;;7.10;99.90;;;6.74;93.21;98475.69;5051453;28;20724;-82
2021/10/17 01:43:35;;;;;;;33.17;9.90;;;7.10;99.90;;;6.73;92.52;98476.59;5057693;28;21024;-82
2021/10/17 01:46:08;;;;;;;22.03;8.80;;;7.10;99.90;;;6.72;92.63;98482.66;5055280;28;20628;-82
2021/10/17 01:48:40;;;;;;;25.17;7.53;;;7.10;99.90;;;6.73;92.90;98482.59;5054153;28;20633;-82
2021/10/17 01:51:09;;;;;;;21.57;8.20;;;7.10;99.90;;;6.73;93.58;98480.00;5040399;28;20655;-82
2021/10/17 01:53:40;;;;;;;27.53;10.20;;;7.10;99.90;;;6.74;93.67;98471.31;5049318;28;20624;-82
2021/10/17 01:56:10;;;;;;;20.57;8.30;;;7.10;99.90;;;6.73;93.69;98474.81;5057983;28;21054;-82
2021/10/17 01:58:40;;;;;;;23.03;9.33;;;7.10;99.90;;;6.73;93.29;98474.00;5033912;28;20679;-82
2021/10/17 02:01:08;;;;;;;23.40;10.83;;;7.00;99.90;;;6.72;93.93;98478.34;5050609;28;20633;-82
2021/10/17 02:03:38;;;;;;;24.77;9.00;;;7.00;99.90;;;6.73;93.89;98481.75;5061010;28;20673;-82
2021/10/17 02:06:07;;;;;;;25.07;8.00;;;7.00;99.90;;;6.70;93.54;98477.56;5055220;28;20744;-82
2021/10/17 02:08:35;;;;;;;32.73;10.30;;;7.00;99.90;;;6.68;93.38;98474.19;5059908;28;20806;-82
2021/10/17 02:11:09;;;;;;;19.83;8.63;;;7.00;99.90;;;6.65;93.15;98476.13;5050946;28;20636;-82
2021/10/17 02:13:38;;;;;;;19.97;7.87;;;7.00;99.90;;;6.61;93.15;98474.56;5038080;28;20640;-82
2021/10/17 02:16:07;;;;;;;18.60;8.50;;;6.90;99.90;;;6.57;93.49;98473.03;5036955;28;20989;-82
2021/10/17 02:18:35;;;;;;;23.50;8.43;;;6.90;99.90;;;6.56;92.94;98470.53;5039126;28;20710;-82
2021/10/17 02:21:04;;;;;;;19.53;8.23;;;6.90;99.90;;;6.53;93.34;98471.50;5056336;28;20628;-82
2021/10/17 02:23:35;;;;;;;19.83;7.97;;;6.80;99.90;;;6.52;92.96;98467.22;5038541;28;20980;-82
2021/10/17 02:26:03;;;;;;;15.73;7.50;;;6.80;99.90;;;6.50;93.13;98468.22;5068701;28;20663;-82
2021/10/17 02:28:56;;;;;;;28.93;8.27;;;6.80;99.90;;;6.49;92.69;98469.94;5045922;28;20634;-82
2021/10/17 02:31:27;;;;;;;23.83;8.07;;;6.80;99.90;;;6.46;92.68;98462.31;5053422;28;20637;-82
2021/10/17 02:33:56;;;;;;;33.00;8.77;;;6.80;99.90;;;6.45;92.69;98468.44;5053326;28;20686;-82
2021/10/17 02:36:25;;;;;;;29.60;8.50;;;6.80;99.90;;;6.44;92.97;98465.91;5058569;28;21071;-82
2021/10/17 02:38:54;;;;;;;17.90;8.00;;;6.80;99.90;;;6.43;92.66;98464.22;5052650;28;20657;-82
2021/10/17 02:41:22;;;;;;;23.20;9.30;;;6.80;99.90;;;6.42;92.42;98459.94;5060172;28;20640;-82
2021/10/17 02:43:51;;;;;;;30.30;8.20;;;6.70;99.90;;;6.40;92.72;98461.75;5042657;28;21060;-82
2021/10/17 02:46:21;;;;;;;18.87;8.10;;;6.70;99.90;;;6.40;92.95;98462.59;5053154;28;20667;-82
2021/10/17 02:48:51;;;;;;;15.53;7.07;;;6.70;99.90;;;6.41;92.80;98459.09;5051250;28;20621;-82
2021/10/17 02:51:23;;;;;;;12.47;6.97;;;6.80;99.90;;;6.44;92.06;98458.13;5051852;28;20644;-82
2021/10/17 02:53:52;;;;;;;15.20;8.30;;;6.80;99.90;;;6.45;92.44;98457.22;5059855;28;20624;-82
2021/10/17 02:56:20;;;;;;;36.83;8.30;;;6.80;99.90;;;6.45;92.28;98455.47;5048631;28;20649;-82
2021/10/17 02:58:49;;;;;;;9.87;7.00;;;6.80;99.90;;;6.47;92.21;98455.41;5052424;28;21195;-82
2021/10/17 03:01:17;;;;;;;16.50;7.70;;;6.80;99.90;;;6.46;92.15;98457.13;5057771;28;20675;-82
2021/10/17 03:03:48;;;;;;;22.30;8.10;;;6.80;99.90;;;6.50;92.61;98461.28;5061938;28;20674;-82
2021/10/17 03:06:16;;;;;;;18.37;8.10;;;6.80;99.90;;;6.51;92.47;98454.34;5056010;28;22937;-82
2021/10/17 03:08:45;;;;;;;21.30;7.70;;;6.80;99.90;;;6.51;92.53;98457.78;5040442;28;20678;-82
2021/10/17 03:11:14;;;;;;;18.47;8.03;;;6.80;99.90;;;6.51;92.91;98450.00;5053134;28;20633;-82
2021/10/17 03:13:48;;;;;;;25.40;9.03;;;6.90;99.90;;;6.50;92.48;98450.91;5041559;28;20633;-82
2021/10/17 03:16:25;;;;;;;14.47;7.37;;;6.80;99.90;;;6.50;93.39;98456.09;5053806;28;20667;-82
2021/10/17 03:18:55;;;;;;;18.10;7.80;;;6.80;99.90;;;6.47;93.00;98452.81;5057985;28;20660;-82
2021/10/17 03:21:24;;;;;;;13.07;7.27;;;6.80;99.90;;;6.43;92.22;98454.69;5036349;28;20724;-82
2021/10/17 03:23:53;;;;;;;13.27;7.50;;;6.80;99.90;;;6.39;92.42;98448.00;5047925;28;20651;-82
2021/10/17 03:26:21;;;;;;;12.17;7.90;;;6.70;99.90;;;6.35;91.94;98441.25;5057220;28;20621;-82
2021/10/17 03:28:50;;;;;;;12.90;7.37;;;6.70;99.90;;;6.33;92.06;98450.00;5041872;28;20633;-82
2021/10/17 03:31:19;;;;;;;12.03;6.83;;;6.70;99.90;;;6.29;91.73;98444.13;5060675;28;20635;-82
2021/10/17 03:33:51;;;;;;;14.93;6.90;;;6.60;99.90;;;6.30;91.56;98448.41;5039809;28;20632;-82
2021/10/17 03:36:21;;;;;;;10.53;7.00;;;6.60;99.90;;;6.31;91.59;98447.47;5035895;28;20628;-82
2021/10/17 03:38:51;;;;;;;13.93;7.40;;;6.70;99.90;;;6.33;91.76;98452.59;5046809;28;21026;-82
2021/10/17 03:41:26;;;;;;;16.30;7.20;;;6.70;99.90;;;6.34;92.20;98452.53;5039193;28;20632;-82
2021/10/17 03:43:54;;;;;;;21.10;8.27;;;6.70;99.90;;;6.37;92.37;98452.38;5039333;28;20656;-82
2021/10/17 03:46:24;;;;;;;14.17;8.27;;;6.70;99.90;;;6.40;92.44;98448.81;5053187;28;20643;-82
2021/10/17 03:48:55;;;;;;;20.73;7.90;;;6.70;99.90;;;6.41;92.25;98453.94;5057248;28;21224;-82
2021/10/17 03:51:28;;;;;;;14.20;7.07;;;6.80;99.90;;;6.42;92.19;98450.44;5060722;28;20672;-82
2021/10/17 03:54:00;;;;;;;19.03;7.13;;;6.80;99.90;;;6.40;92.17;98446.22;5061396;28;20647;-82
2021/10/17 03:56:29;;;;;;;37.83;7.90;;;6.80;99.90;;;6.40;92.42;98447.06;5052178;28;21214;-82
2021/10/17 03:58:58;;;;;;;12.63;7.20;;;6.80;99.90;;;6.37;92.10;98449.78;5060470;28;20689;-82
2021/10/17 04:01:27;;;;;;;24.47;8.17;;;6.70;99.90;;;6.39;92.04;98441.94;5033563;28;20639;-82
2021/10/17 04:03:56;;;;;;;14.43;6.80;;;6.70;99.90;;;6.37;91.96;98447.19;5056507;28;20639;-82
2021/10/17 04:06:24;;;;;;;20.93;7.30;;;6.70;99.90;;;6.37;91.96;98446.38;5058660;28;20627;-82
2021/10/17 04:09:02;;;;;;;16.60;6.60;;;6.70;99.90;;;6.36;91.91;98444.69;5054819;28;20660;-82
2021/10/17 04:11:30;;;;;;;22.67;7.53;;;6.70;99.90;;;6.34;92.13;98449.09;5043980;28;20706;-82
2021/10/17 04:13:59;;;;;;;14.30;7.63;;;6.70;99.90;;;6.32;92.00;98441.41;5056792;28;20647;-82
2021/10/17 04:16:28;;;;;;;13.73;7.07;;;6.70;99.90;;;6.30;91.98;98445.81;5054481;28;20735;-82
2021/10/17 04:18:57;;;;;;;19.10;7.70;;;6.60;99.90;;;6.28;92.38;98442.44;5040768;28;20670;-82
2021/10/17 04:21:25;;;;;;;16.07;7.90;;;6.60;99.90;;;6.27;92.67;98438.19;5059386;28;20643;-82
2021/10/17 04:23:54;;;;;;;20.13;7.50;;;6.60;99.90;;;6.28;92.39;98444.19;5060657;28;20662;-82
2021/10/17 04:26:26;;;;;;;33.17;11.77;;;6.60;99.90;;;6.29;92.48;98440.72;5043521;28;20762;-82
2021/10/17 04:28:56;;;;;;;26.17;7.33;;;6.60;99.90;;;6.27;92.71;98443.38;5041272;28;20667;-82
2021/10/17 04:31:25;;;;;;;18.53;7.03;;;6.60;99.90;;;6.27;92.51;98448.56;5040725;28;20643;-82
2021/10/17 04:33:53;;;;;;;19.10;8.37;;;6.60;99.90;;;6.29;92.86;98440.72;5057288;28;20624;-82
2021/10/17 04:36:22;;;;;;;28.93;8.47;;;6.60;99.90;;;6.29;92.40;98446.72;5054126;28;20628;-82
2021/10/17 04:38:52;;;;;;;34.23;8.73;;;6.60;99.90;;;6.29;92.66;98440.72;5061634;28;20691;-82
2021/10/17 04:41:21;;;;;;;11.90;7.10;;;6.60;99.90;;;6.30;92.69;98444.97;5043137;28;20637;-82
2021/10/17 04:43:51;;;;;;;27.83;10.30;;;6.60;99.90;;;6.32;92.86;98441.41;5053445;28;20634;-82
2021/10/17 04:46:19;;;;;;;21.10;9.37;;;6.60;99.90;;;6.32;93.17;98441.41;5054192;28;20655;-82
2021/10/17 04:48:48;;;;;;;17.13;7.53;;;6.70;99.90;;;6.34;93.12;98438.75;5053429;28;20688;-82
2021/10/17 04:51:17;;;;;;;28.17;8.10;;;6.70;99.90;;;6.36;93.46;98439.50;5055898;28;20644;-82
2021/10/17 04:53:46;;;;;;;18.30;8.37;;;6.70;99.90;;;6.36;92.95;98445.53;5062983;28;20670;-82
2021/10/17 04:56:16;;;;;;;11.50;7.20;;;6.70;99.90;;;6.38;93.08;98445.47;5054608;28;21236;-82
2021/10/17 04:58:45;;;;;;;11.90;6.70;;;6.70;99.90;;;6.40;92.74;98441.88;5042952;28;20695;-83
2021/10/17 05:01:15;;;;;;;14.30;7.63;;;6.70;99.90;;;6.42;93.08;98437.50;5042606;28;20641;-82
2021/10/17 05:03:44;;;;;;;17.10;8.17;;;6.70;99.90;;;6.44;92.51;98437.41;5051176;28;20663;-82
2021/10/17 05:06:13;;;;;;;10.60;7.40;;;6.70;99.90;;;6.45;92.65;98433.91;5053442;28;20632;-82
2021/10/17 05:08:45;;;;;;;19.53;8.03;;;6.80;99.90;;;6.47;93.21;98442.47;5058081;28;21267;-82
2021/10/17 05:11:14;;;;;;;14.60;7.63;;;6.80;99.90;;;6.51;93.12;98443.97;5058353;28;20680;-82
2021/10/17 05:13:43;;;;;;;19.20;7.40;;;6.80;99.90;;;6.52;92.69;98438.72;5057198;28;20651;-82
2021/10/17 05:16:13;;;;;;;17.83;7.93;;;6.80;99.90;;;6.53;93.17;98440.41;5053621;28;20663;-82
2021/10/17 05:18:43;;;;;;;10.90;7.87;;;6.90;99.90;;;6.55;92.50;98448.94;5053418;28;20663;-82
2021/10/17 05:21:11;;;;;;;16.03;8.47;;;6.80;99.90;;;6.56;92.96;98445.44;5063133;28;21214;-82
2021/10/17 05:23:40;;;;;;;22.33;8.27;;;6.90;99.90;;;6.58;92.32;98444.47;5050401;28;21071;-82
2021/10/17 05:26:12;;;;;;;14.40;7.80;;;6.90;99.90;;;6.60;92.54;98444.41;5056776;28;20637;-82
2021/10/17 05:28:42;;;;;;;11.67;8.27;;;6.90;99.90;;;6.62;93.04;98447.75;5051035;28;20675;-82
2021/10/17 05:31:11;;;;;;;24.37;10.33;;;6.90;99.90;;;6.64;92.71;98449.34;5058421;28;20636;-82
2021/10/17 05:33:39;;;;;;;12.93;8.23;;;7.00;99.90;;;6.68;92.93;98439.69;5056340;28;20689;-82
2021/10/17 05:36:11;;;;;;;9.23;7.00;;;7.00;99.90;;;6.69;92.09;98436.16;5050829;28;21008;-82
2021/10/17 05:38:44;;;;;;;11.77;8.30;;;7.00;99.90;;;6.71;92.11;98442.13;5052055;28;20648;-83
2021/10/17 05:41:13;;;;;;;20.03;8.73;;;7.00;99.90;;;6.71;91.86;98437.78;5040414;28;21033;-83
2021/10/17 05:43:42;;;;;;;11.90;6.93;;;7.10;99.90;;;6.71;92.10;98442.13;5053432;28;20716;-83
2021/10/17 05:46:11;;;;;;;13.73;8.60;;;7.00;99.90;;;6.73;92.13;98442.91;5054916;28;20702;-83
2021/10/17 05:48:41;;;;;;;12.40;8.40;;;7.00;99.90;;;6.71;92.54;98442.97;5051952;28;20651;-81
2021/10/17 05:51:11;;;;;;;11.60;8.47;;;7.00;99.90;;;6.72;92.57;98441.19;5042822;28;21420;-81
2021/10/17 05:53:43;;;;;;;14.70;7.57;;;7.10;99.90;;;6.72;92.26;98449.84;5056144;28;20633;-81
2021/10/17 05:56:13;;;;;;;11.37;8.27;;;7.00;99.90;;;6.74;92.92;98455.78;5051593;28;20744;-81
2021/10/17 05:58:43;;;;;;;14.10;10.60;;;7.00;99.90;;;6.74;92.02;98449.78;5040083;28;21000;-81
2021/10/17 06:01:12;;;;;;;12.27;7.67;;;7.10;99.90;;;6.75;92.49;98456.59;5051612;28;20636;-81
2021/10/17 06:03:49;;;;;;;11.30;7.80;;;7.00;99.90;;;6.77;91.95;98458.22;5040565;28;20647;-81
2021/10/17 06:06:43;;;;;;;10.93;7.60;;;7.10;99.90;;;6.81;91.98;98464.97;5053599;28;20636;-81
2021/10/17 06:09:15;;;;;;;11.80;8.30;;;7.10;99.90;;;6.84;92.49;98467.41;5055932;28;20663;-81
2021/10/17 06:11:44;;;;;;;11.13;7.43;;;7.20;99.90;;;6.92;92.20;98472.22;5058053;28;20643;-81
2021/10/17 06:14:13;;;;;;;12.50;8.40;;;7.20;99.90;;;7.00;92.84;98472.69;5041723;28;21424;-81
2021/10/17 06:16:42;;;;;;;10.37;7.53;;;7.30;99.90;;;7.06;91.70;98474.03;5051408;28;20736;-81
2021/10/17 06:19:13;;;;;;;9.73;7.73;;;7.30;99.90;;;7.19;92.45;98472.56;5065329;28;20706;-81
2021/10/17 06:21:51;;;;;;;9.80;7.73;;;7.50;99.90;;;7.33;91.35;98484.84;5050584;28;20654;-81
2021/10/17 06:24:19;;;;;;;11.10;8.33;;;7.60;99.90;;;7.40;90.73;98483.66;5051217;28;20659;-81
2021/10/17 06:26:50;;;;;;;10.53;7.80;;;7.60;99.90;;;7.48;91.21;98490.09;5057421;28;20632;-81
2021/10/17 06:29:23;;;;;;;10.50;7.83;;;7.70;99.90;;;7.61;90.82;98492.03;5053923;28;21266;-81
2021/10/17 06:31:52;;;;;;;10.70;8.50;;;7.90;99.90;;;7.74;91.30;98490.50;5053473;28;20990;-81
2021/10/17 06:34:21;;;;;;;10.77;7.73;;;7.90;99.90;;;7.78;90.91;98486.81;5043707;28;20698;-81
2021/10/17 06:36:52;;;;;;;11.80;8.40;;;8.00;99.90;;;7.79;89.41;98490.25;5055149;28;20643;-81
2021/10/17 06:39:21;;;;;;;10.77;8.10;;;8.00;99.90;;;7.74;89.99;98502.63;5048349;28;20682;-81
2021/10/17 06:41:50;;;;;;;10.37;8.23;;;8.00;99.90;;;7.72;90.95;98504.47;5056316;28;21175;-81
2021/10/17 06:44:25;;;;;;;11.20;8.70;;;8.00;99.90;;;7.72;90.30;98501.88;5058596;28;20637;-81
2021/10/17 06:46:56;;;;;;;11.20;8.13;;;8.00;99.90;;;7.74;89.56;98500.88;5052100;28;20628;-82
2021/10/17 06:49:25;;;;;;;11.80;8.63;;;8.00;99.90;;;7.75;89.58;98501.72;5042141;28;20670;-82
2021/10/17 06:51:55;;;;;;;11.70;9.33;;;8.00;99.90;;;7.76;90.67;98506.81;5037503;28;20640;-82
2021/10/17 06:54:24;;;;;;;9.87;7.73;;;8.00;99.90;;;7.81;90.17;98509.19;5050998;28;20628;-82
2021/10/17 06:56:53;;;;;;;14.00;8.40;;;8.10;99.90;;;7.84;90.70;98511.63;5050701;28;20637;-81
2021/10/17 06:59:22;;;;;;;10.63;8.23;;;8.00;99.90;;;7.87;89.59;98503.69;5041368;28;20640;-81
2021/10/17 07:01:51;;;;;;;10.27;7.80;;;8.10;99.90;;;7.92;91.13;98505.09;5058359;28;20687;-81
2021/10/17 07:04:20;;;;;;;10.67;8.20;;;8.10;99.90;;;7.91;89.25;98520.75;5059815;28;20655;-81
2021/10/17 07:06:49;;;;;;;9.93;7.90;;;8.10;99.90;;;7.91;89.97;98511.25;5051194;28;20725;-81
2021/10/17 07:09:21;;;;;;;11.80;8.87;;;8.10;99.90;;;7.93;90.41;98516.34;5054138;28;21003;-81
2021/10/17 07:11:54;;;;;;;11.33;8.80;;;8.10;99.90;;;7.99;90.36;98522.91;5038328;28;21276;-81
2021/10/17 07:14:28;;;;;;;13.17;9.70;;;8.20;99.90;;;8.03;91.08;98519.22;5045430;28;20637;-81
2021/10/17 07:17:25;;;;;;;11.50;8.27;;;8.30;99.90;;;8.08;91.27;98522.44;5033546;28;20702;-81
2021/10/17 07:19:54;;;;;;;11.27;8.00;;;8.30;99.90;;;8.13;92.14;98525.69;5040946;28;22416;-81
2021/10/17 07:22:22;;;;;;;11.30;9.40;;;8.40;99.90;;;8.17;90.48;98529.78;5060960;28;21211;-81
2021/10/17 07:24:53;;;;;;;11.47;8.20;;;8.40;99.90;;;8.19;91.61;98522.72;5065218;28;20636;-81
2021/10/17 07:27:22;;;;;;;12.20;8.87;;;8.40;99.90;;;8.22;91.69;98529.53;5051499;28;20632;-81
2021/10/17 07:29:50;;;;;;;12.47;9.17;;;8.40;99.90;;;8.29;91.22;98531.75;5058079;28;21199;-81
2021/10/17 07:32:19;;;;;;;11.00;8.87;;;8.50;99.90;;;8.37;90.94;98539.13;5054509;28;20662;-81
2021/10/17 07:34:49;;;;;;;10.93;8.90;;;8.60;99.90;;;8.41;89.97;98532.88;5061808;28;20620;-81
2021/10/17 07:37:22;;;;;;;10.20;8.20;;;8.60;99.90;;;8.50;90.62;98533.22;5059539;28;21285;-81
2021/10/17 07:39:53;;;;;;;10.80;8.40;;;8.70;99.90;;;8.62;91.31;98530.78;5047101;28;20662;-81
2021/10/17 07:42:25;;;;;;;14.40;10.00;;;8.80;99.90;;;8.70;92.02;98538.19;5058002;28;20643;-82
2021/10/17 07:44:58;;;;;;;13.80;10.10;;;8.90;99.90;;;8.75;91.80;98531.81;5061870;28;20639;-82
2021/10/17 07:47:37;;;;;;;12.33;9.00;;;8.90;99.90;;;8.78;91.04;98536.00;5056536;28;20631;-82
2021/10/17 07:50:10;;;;;;;11.47;9.40;;;9.00;99.90;;;8.85;91.12;98526.97;5053894;28;20639;-82
2021/10/17 07:52:43;;;;;;;12.73;8.80;;;9.00;99.90;;;8.90;91.33;98532.72;5069007;28;20678;-82
2021/10/17 07:55:26;;;;;;;13.00;9.27;;;9.10;99.90;;;8.95;91.08;98537.59;5052338;28;20740;-82
2021/10/17 07:58:01;;;;;;;12.83;9.43;;;9.10;99.90;;;9.03;90.76;98542.38;5058163;28;20649;-82
2021/10/17 08:00:37;;;;;;;11.63;9.30;;;9.20;99.90;;;9.08;91.19;98550.78;5056306;28;20755;-82
2021/10/17 08:03:38;;;;;;;13.50;9.73;;;9.20;99.90;;;9.26;91.05;98550.63;5056485;28;20733;-82
2021/10/17 08:06:24;;;;;;;11.97;9.37;;;9.40;99.90;;;9.31;90.36;98552.97;5038970;28;20624;-82
2021/10/17 08:08:53;;;;;;;16.13;10.60;;;9.50;99.90;;;9.33;89.91;98557.13;5057311;28;21115;-82
2021/10/17 08:11:24;;;;;;;15.80;9.83;;;9.50;99.90;;;9.36;90.39;98559.56;5054044;28;20663;-81
2021/10/17 08:13:59;;;;;;;20.60;10.50;;;9.60;99.90;;;9.36;90.88;98551.75;5058971;28;20659;-82
2021/10/17 08:16:35;;;;;;;19.60;11.20;;;9.50;99.90;;;9.49;91.59;98560.56;5055181;28;20723;-82
2021/10/17 08:19:04;;;;;;;16.00;10.70;;;9.60;99.90;;;9.70;91.16;98562.78;5042763;28;20637;-81
2021/10/17 08:21:33;;;;;;;20.20;10.20;;;9.80;99.90;;;9.89;91.18;98560.78;5037351;28;21274;-82
2021/10/17 08:24:09;;;;;;;19.70;12.00;;;10.00;99.90;;;10.04;90.21;98560.78;5039935;28;20624;-82
2021/10/17 08:26:44;;;;;;;15.50;12.40;;;10.10;99.90;;;10.22;89.73;98559.66;5054547;28;20993;-82
2021/10/17 08:29:19;;;;;;;15.37;12.50;;;10.30;99.90;;;10.33;89.67;98559.88;5044987;28;20667;-83
2021/10/17 08:31:48;;;;;;;33.60;23.60;;;10.40;99.90;;;10.35;88.66;98558.03;5041681;28;20720;-84
2021/10/17 08:34:18;;;;;;;21.70;14.77;;;10.50;99.90;;;10.42;89.36;98562.78;5059265;28;21004;-83
2021/10/17 08:36:47;;;;;;;17.53;13.97;;;10.50;99.90;;;10.48;89.10;98565.00;5041861;28;20648;-83
2021/10/17 08:40:00;;;;;;;14.83;12.97;;;10.60;99.90;;;10.58;89.01;98565.28;5058021;28;20640;-82
2021/10/17 08:42:48;;;;;;;17.20;12.80;;;10.70;99.90;;;10.62;89.46;98574.63;5070115;28;20643;-82
2021/10/17 08:45:39;;;;;;;19.50;16.20;;;10.80;99.90;;;10.62;89.30;98572.00;5059605;28;20640;-84
2021/10/17 08:48:11;;;;;;;18.57;14.63;;;10.80;99.90;;;10.68;90.01;98577.69;5048721;28;20643;-84
2021/10/17 08:50:53;;;;;;;22.48;18.42;;;10.80;99.90;;;10.75;88.95;98576.38;5041708;28;20760;-83
2021/10/17 08:53:29;;;;;;;22.77;15.90;;;10.90;99.90;;;10.82;88.28;98573.31;5057456;28;20689;-81
2021/10/17 08:56:06;;;;;;;18.37;15.00;;;11.00;99.90;;;10.89;89.17;98573.75;5040401;28;21033;-81
2021/10/17 08:58:40;;;;;;;19.23;13.30;;;11.00;99.90;;;10.94;89.59;98584.75;5055816;28;20702;-81
2021/10/17 09:01:17;;;;;;;19.97;13.87;;;11.00;99.90;;;10.95;89.85;98576.81;5060584;28;20678;-81
2021/10/17 09:03:55;;;;;;;19.67;14.13;;;11.10;99.90;;;10.98;88.69;98575.81;5057620;28;21001;-81
2021/10/17 09:06:36;;;;;;;17.33;14.10;;;11.10;99.90;;;10.99;88.37;98573.09;5052991;28;20734;-81
2021/10/17 09:09:11;;;;;;;18.20;14.47;;;11.10;99.90;;;11.04;88.98;98571.03;5048473;28;20757;-81
2021/10/17 09:11:46;;;;;;;18.23;14.30;;;11.20;99.90;;;11.09;88.51;98568.13;5058033;28;20722;-80
2021/10/17 09:14:18;;;;;;;18.90;14.50;;;11.20;99.90;;;11.13;90.47;98573.06;5049353;28;20633;-81
2021/10/17 09:16:50;;;;;;;18.97;15.50;;;11.30;99.90;;;11.17;90.33;98577.16;5055721;28;21267;-82
2021/10/17 09:19:23;;;;;;;18.30;15.63;;;11.40;99.90;;;11.27;90.58;98570.41;5059977;28;22164;-81
2021/10/17 09:21:59;;;;;;;19.40;16.00;;;11.40;99.90;;;11.37;89.72;98568.91;5052270;28;20989;-81
2021/10/17 09:24:34;;;;;;;23.50;16.30;;;11.50;99.90;;;11.47;90.29;98573.47;5061817;28;21263;-81
2021/10/17 09:27:12;;;;;;;23.07;15.67;;;11.50;99.90;;;11.47;89.33;98568.25;5053971;28;20663;-81
2021/10/17 09:29:45;;;;;;;21.07;17.73;;;11.60;99.90;;;11.49;88.86;98573.38;5054710;28;20625;-81
2021/10/17 09:32:18;;;;;;;20.37;16.40;;;11.60;99.90;;;11.61;88.86;98572.59;5059640;28;20616;-81
2021/10/17 09:34:55;;;;;;;22.20;17.27;;;11.70;99.90;;;11.82;87.22;98567.63;5048927;28;20633;-81
2021/10/17 09:37:32;;;;;;;23.60;19.77;;;11.90;99.90;;;11.94;88.56;98566.81;5051489;28;20652;-81
2021/10/17 09:40:20;;;;;;;21.17;16.90;;;12.00;99.90;;;11.89;88.36;98568.91;5052922;28;20651;-81
2021/10/17 09:43:11;;;;;;;23.57;17.90;;;12.00;99.90;;;11.88;88.72;98563.78;5042894;28;20694;-81
2021/10/17 09:46:09;;;;;;;21.90;16.60;;;12.00;99.90;;;11.81;87.67;98559.88;5057939;28;20734;-81
2021/10/17 09:48:41;;;;;;;23.00;18.10;;;11.90;99.70;;;11.78;87.43;98554.88;5053699;28;20636;-81
2021/10/17 09:51:15;;;;;;;22.83;17.53;;;11.90;99.70;;;11.78;88.97;98545.25;5032927;28;21191;-81
2021/10/17 09:53:47;;;;;;;25.23;19.03;;;12.00;99.90;;;11.80;87.00;98547.75;5044601;28;21250;-81
2021/10/17 09:56:31;;;;;;;22.13;17.43;;;11.90;99.80;;;11.88;88.87;98554.16;5056838;28;20640;-81
2021/10/17 09:59:03;;;;;;;24.80;18.10;;;12.00;99.90;;;11.84;87.51;98549.25;5052938;28;21001;-81
2021/10/17 10:01:34;;;;;;;28.93;23.03;;;11.90;99.90;;;11.94;87.69;98550.31;5051585;28;20744;-81
2021/10/17 10:04:07;;;;;;;26.63;22.00;;;12.00;99.90;;;12.05;87.44;98538.19;5052089;28;21141;-81
2021/10/17 10:06:36;;;;;;;25.50;20.77;;;12.10;99.80;;;12.04;87.57;98536.53;5037366;28;20671;-81
2021/10/17 10:09:08;;;;;;;23.80;19.47;;;12.10;99.30;;;12.01;85.62;98541.09;5046550;28;20659;-81
2021/10/17 10:11:38;;;;;;;25.53;20.03;;;12.00;98.90;;;12.06;86.10;98539.88;5052128;28;20735;-81
2021/10/17 10:14:12;;;;;;;25.43;19.80;;;12.10;99.20;;;12.13;85.61;98540.28;5057161;28;20632;-81
2021/10/17 10:16:44;;;;;;;23.70;19.40;;;12.10;99.50;;;12.17;87.35;98547.81;5045334;28;20642;-81
2021/10/17 10:19:16;;;;;;;23.60;19.27;;;12.30;99.40;;;12.28;88.08;98534.84;5038016;28;20641;-81
2021/10/17 10:21:45;;;;;;;24.70;19.90;;;12.40;99.80;;;12.31;84.66;98540.72;5053468;28;20641;-81
2021/10/17 10:24:17;;;;;;;27.70;20.63;;;12.40;98.90;;;12.38;86.53;98541.16;5051372;28;20643;-82
2021/10/17 10:26:52;;;;;;;25.37;19.63;;;12.50;99.40;;;12.67;87.05;98553.06;5038586;28;20651;-82
2021/10/17 10:29:26;;;;;;;25.83;20.47;;;12.70;99.50;;;12.94;86.21;98536.28;5053073;28;21034;-82
2021/10/17 10:31:56;;;;;;;28.30;21.80;;;12.90;99.20;;;13.15;84.77;98542.63;5054366;28;20628;-82
2021/10/17 10:34:56;;;;;;;26.23;20.00;;;13.10;99.00;;;13.34;84.81;98543.81;5053214;28;21215;-82
2021/10/17 10:37:27;;;;;;;25.90;19.13;;;13.30;99.00;;;13.45;83.40;98547.31;5033927;28;20656;-81
2021/10/17 10:40:15;;;;;;;24.80;19.67;;;13.40;98.10;;;13.54;82.28;98538.78;5060052;28;21082;-81